createdAt,value
2022-11-14T00:01:26.662Z,89.01
2022-11-14T00:04:48.309Z,88.64
2022-11-14T00:08:18.785Z,89.04
2022-11-14T00:11:39.528Z,90.14
2022-11-14T00:15:00.201Z,91.51
2022-11-14T00:18:21.809Z,92.50
2022-11-14T00:21:42.504Z,92.61
2022-11-14T00:25:07.477Z,92.88
2022-11-14T00:28:28.165Z,92.33
2022-11-14T00:31:48.868Z,91.55
2022-11-14T00:35:09.975Z,91.65
2022-11-14T00:38:30.513Z,91.22
2022-11-14T00:41:51.236Z,91.01
2022-11-14T00:45:12.163Z,90.98
2022-11-14T00:48:32.745Z,90.08
2022-11-14T00:51:53.501Z,90.49
2022-11-14T00:55:13.909Z,89.60
2022-11-14T00:58:36.078Z,89.67
2022-11-14T01:01:58.271Z,89.33
2022-11-14T01:05:19.083Z,88.60
2022-11-14T01:08:39.453Z,88.39
2022-11-14T01:12:00.023Z,87.71
2022-11-14T01:15:20.714Z,88.43
2022-11-14T01:18:41.563Z,87.35
2022-11-14T01:22:06.293Z,87.68
2022-11-14T01:25:26.950Z,87.57
2022-11-14T01:28:47.636Z,87.36
2022-11-14T01:32:08.456Z,87.05
2022-11-14T01:35:29.231Z,87.27
2022-11-14T01:38:53.964Z,87.74
2022-11-14T01:42:15.714Z,86.64
2022-11-14T01:45:59.132Z,87.08
2022-11-14T01:49:25.078Z,86.55
2022-11-14T01:52:46.783Z,87.52
2022-11-14T01:56:09.566Z,87.93
2022-11-14T01:59:38.353Z,88.19
2022-11-14T02:03:00.379Z,87.56
2022-11-14T02:06:24.313Z,87.62
2022-11-14T02:09:47.231Z,87.25
2022-11-14T02:13:08.710Z,86.94
2022-11-14T02:16:29.372Z,87.12
2022-11-14T02:19:53.352Z,87.05
2022-11-14T02:23:13.851Z,86.96
2022-11-14T02:26:36.766Z,86.55
2022-11-14T02:30:27.174Z,86.60
2022-11-14T02:33:47.887Z,86.71
2022-11-14T02:37:08.551Z,87.51
2022-11-14T02:40:29.217Z,87.53
2022-11-14T02:43:49.722Z,87.45
2022-11-14T02:47:10.557Z,87.42
2022-11-14T02:50:31.506Z,87.12
2022-11-14T02:53:52.191Z,87.97
2022-11-14T02:57:12.436Z,86.74
2022-11-14T03:00:32.671Z,86.81
2022-11-14T03:03:53.058Z,86.25
2022-11-14T03:07:13.584Z,86.49
2022-11-14T03:10:34.542Z,86.08
2022-11-14T03:13:55.483Z,86.05
2022-11-14T03:17:16.980Z,85.88
2022-11-14T03:20:37.520Z,86.81
2022-11-14T03:23:57.917Z,87.41
2022-11-14T03:27:18.487Z,87.53
2022-11-14T03:30:39.233Z,88.06
2022-11-14T03:34:00.051Z,88.43
2022-11-14T03:37:20.797Z,88.10
2022-11-14T03:40:41.435Z,88.42
2022-11-14T03:44:01.823Z,88.45
2022-11-14T03:47:22.598Z,87.36
2022-11-14T03:50:43.848Z,87.23
2022-11-14T03:54:04.630Z,86.89
2022-11-14T03:57:25.349Z,87.37
2022-11-14T04:00:45.813Z,86.97
2022-11-14T04:04:06.544Z,87.62
2022-11-14T04:07:27.243Z,87.63
2022-11-14T04:10:49.009Z,88.46
2022-11-14T04:14:10.482Z,88.69
2022-11-14T04:17:34.486Z,88.28
2022-11-14T04:20:57.645Z,88.68
2022-11-14T04:24:18.555Z,88.77
2022-11-14T04:27:39.200Z,88.13
2022-11-14T04:31:00.674Z,88.12
2022-11-14T04:34:21.575Z,87.96
2022-11-14T04:37:41.839Z,87.63
2022-11-14T04:41:02.165Z,87.60
2022-11-14T04:44:22.510Z,87.79
2022-11-14T04:47:43.358Z,87.64
2022-11-14T04:51:04.188Z,87.33
2022-11-14T04:54:24.620Z,87.92
2022-11-14T04:57:45.785Z,87.86
2022-11-14T05:01:11.162Z,88.05
2022-11-14T05:04:33.138Z,87.85
2022-11-14T05:07:55.292Z,87.85
2022-11-14T05:11:17.161Z,87.90
2022-11-14T05:14:37.921Z,83.78
2022-11-14T05:17:59.101Z,79.08
2022-11-14T05:21:19.512Z,74.26
2022-11-14T05:24:40.045Z,76.68
2022-11-14T05:28:02.183Z,75.85
2022-11-14T05:31:22.697Z,73.41
2022-11-14T05:34:43.458Z,74.10
2022-11-14T05:38:04.098Z,76.20
2022-11-14T05:41:24.876Z,71.69
2022-11-14T05:44:45.477Z,70.29
2022-11-14T05:48:06.436Z,73.64
2022-11-14T05:51:26.827Z,65.76
2022-11-14T05:54:47.422Z,65.49
2022-11-14T05:58:08.035Z,69.13
2022-11-14T06:01:28.865Z,68.64
2022-11-14T06:04:49.513Z,67.14
2022-11-14T06:08:10.376Z,66.43
2022-11-14T06:11:30.968Z,67.23
2022-11-14T06:14:51.296Z,66.40
2022-11-14T06:18:11.946Z,61.96
2022-11-14T06:21:32.442Z,63.77
2022-11-14T06:24:52.855Z,63.92
2022-11-14T06:28:13.475Z,61.79
2022-11-14T06:31:34.280Z,66.26
2022-11-14T06:34:56.116Z,64.46
2022-11-14T06:38:16.690Z,65.38
2022-11-14T06:41:37.408Z,67.41
2022-11-14T06:44:58.024Z,63.95
2022-11-14T06:48:18.396Z,62.21
2022-11-14T06:51:38.813Z,64.30
2022-11-14T06:54:59.082Z,63.52
2022-11-14T06:58:19.569Z,67.27
2022-11-14T07:01:40.014Z,69.90
2022-11-14T07:05:00.527Z,72.06
2022-11-14T07:08:21.436Z,74.13
2022-11-14T07:11:42.227Z,79.89
2022-11-14T07:15:03.115Z,76.32
2022-11-14T07:18:25.280Z,76.94
2022-11-14T07:21:46.048Z,76.63
2022-11-14T07:25:07.471Z,77.16
2022-11-14T07:28:28.556Z,77.47
2022-11-14T07:31:50.772Z,80.29
2022-11-14T07:35:11.506Z,81.14
2022-11-14T07:38:35.908Z,82.56
2022-11-14T07:41:57.305Z,81.88
2022-11-14T07:45:20.218Z,81.21
2022-11-14T07:48:41.321Z,80.64
2022-11-14T07:55:52.938Z,79.97
2022-11-14T07:59:13.738Z,79.71
2022-11-14T08:02:34.175Z,79.73
2022-11-14T08:06:08.589Z,79.21
2022-11-14T08:09:29.154Z,77.16
2022-11-14T08:13:17.572Z,68.76
2022-11-14T08:16:39.546Z,66.11
2022-11-14T08:20:00.390Z,64.68
2022-11-14T08:23:21.228Z,64.06
2022-11-14T08:26:42.024Z,64.89
2022-11-14T08:30:02.722Z,64.73
2022-11-14T08:33:22.911Z,64.05
2022-11-14T08:36:43.574Z,64.01
2022-11-14T08:40:04.959Z,63.45
2022-11-14T08:43:25.760Z,63.62
2022-11-14T08:46:46.533Z,62.60
2022-11-14T08:50:07.463Z,63.31
2022-11-14T08:53:28.681Z,62.91
2022-11-14T08:56:49.430Z,62.77
2022-11-14T09:00:10.740Z,62.31
2022-11-14T09:03:31.492Z,62.03
2022-11-14T09:06:52.488Z,62.51
2022-11-14T09:10:13.474Z,62.17
2022-11-14T09:13:35.302Z,61.11
2022-11-14T09:16:55.930Z,59.27
2022-11-14T09:20:16.425Z,59.77
2022-11-14T09:23:37.033Z,59.34
2022-11-14T09:26:57.433Z,59.57
2022-11-14T09:30:18.038Z,61.23
2022-11-14T09:33:43.397Z,65.32
2022-11-14T09:37:03.847Z,67.36
2022-11-14T09:40:24.243Z,68.66
2022-11-14T09:44:23.339Z,70.74
2022-11-14T09:47:59.559Z,69.64
2022-11-14T09:51:22.568Z,65.74
2022-11-14T09:54:49.348Z,63.94
2022-11-14T09:58:18.347Z,61.69
2022-11-14T10:01:41.676Z,61.76
2022-11-14T10:05:09.325Z,60.72
2022-11-14T10:08:58.691Z,59.49
2022-11-14T10:12:44.268Z,59.76
2022-11-14T10:16:11.246Z,60.30
2022-11-14T10:19:43.039Z,63.17
2022-11-14T10:23:19.706Z,59.96
2022-11-14T10:27:07.341Z,60.28
2022-11-14T10:30:38.812Z,60.69
2022-11-14T10:34:09.356Z,60.66
2022-11-14T10:37:33.400Z,63.15
2022-11-14T10:40:59.496Z,67.42
2022-11-14T10:44:28.108Z,84.66
2022-11-14T10:47:56.236Z,83.15
2022-11-14T10:51:26.659Z,86.62
2022-11-14T10:55:15.279Z,80.32
2022-11-14T10:58:47.958Z,83.30
2022-11-14T11:02:10.312Z,86.24
2022-11-14T11:05:31.162Z,85.55
2022-11-14T11:09:09.867Z,83.15
2022-11-14T11:12:42.559Z,84.84
2022-11-14T11:16:05.047Z,85.66
2022-11-14T11:19:27.807Z,84.69
2022-11-14T11:22:48.443Z,82.05
2022-11-14T11:26:25.646Z,82.06
2022-11-14T11:29:47.282Z,81.74
2022-11-14T11:33:24.540Z,80.11
2022-11-14T11:36:50.536Z,80.24
2022-11-14T11:40:17.746Z,80.45
2022-11-14T11:43:57.040Z,80.44
2022-11-14T11:47:19.610Z,80.64
2022-11-14T11:50:42.475Z,81.24
2022-11-14T11:54:12.263Z,81.50
2022-11-14T11:57:37.102Z,81.38
2022-11-14T12:00:58.278Z,82.10
2022-11-14T12:04:19.050Z,82.27
2022-11-14T12:07:51.048Z,82.77
2022-11-14T12:11:17.252Z,81.42
2022-11-14T12:15:04.434Z,81.58
2022-11-14T12:18:57.790Z,81.88
2022-11-14T12:22:51.725Z,81.09
2022-11-14T12:26:33.465Z,81.98
2022-11-14T12:30:19.150Z,80.19
2022-11-14T12:34:00.395Z,78.35
2022-11-14T12:37:27.117Z,80.74
2022-11-14T12:40:54.500Z,83.40
2022-11-14T12:44:39.065Z,85.17
2022-11-14T12:48:27.427Z,86.67
2022-11-14T12:51:51.519Z,86.34
2022-11-14T12:55:24.624Z,87.46
2022-11-14T12:59:12.441Z,86.69
2022-11-14T13:03:08.274Z,87.57
2022-11-14T13:06:44.005Z,88.08
2022-11-14T13:10:14.489Z,87.53
2022-11-14T13:14:20.195Z,86.31
2022-11-14T13:18:01.656Z,85.20
2022-11-14T13:21:45.968Z,84.83
2022-11-14T13:25:06.762Z,84.72
2022-11-14T13:28:36.499Z,84.28
2022-11-14T13:31:57.321Z,85.01
2022-11-14T13:35:49.379Z,87.92
2022-11-14T13:39:09.993Z,87.24
2022-11-14T13:42:42.482Z,86.83
2022-11-14T13:46:34.334Z,88.05
2022-11-14T13:50:04.571Z,85.82
2022-11-14T13:53:29.769Z,80.53
2022-11-14T13:56:57.955Z,77.04
2022-11-14T14:00:21.033Z,77.14
2022-11-14T14:04:09.223Z,76.29
2022-11-14T14:07:55.753Z,77.15
2022-11-14T14:11:25.483Z,80.02
2022-11-14T14:15:07.455Z,84.59
2022-11-14T14:19:03.644Z,87.85
2022-11-14T14:22:33.654Z,89.11
2022-11-14T14:26:14.121Z,89.87
2022-11-14T14:29:34.600Z,91.13
2022-11-14T14:33:09.635Z,91.67
2022-11-14T14:36:31.240Z,91.50
2022-11-14T14:40:02.108Z,91.11
2022-11-14T14:44:18.592Z,91.27
2022-11-14T14:48:15.902Z,91.55
2022-11-14T14:51:38.385Z,91.22
2022-11-14T14:55:02.621Z,90.78
2022-11-14T14:58:23.144Z,91.54
2022-11-14T15:01:44.512Z,91.82
2022-11-14T15:05:06.474Z,92.07
2022-11-14T15:08:33.823Z,93.51
2022-11-14T15:15:42.461Z,94.87
2022-11-14T15:19:04.755Z,94.41
2022-11-14T15:22:30.056Z,94.11
2022-11-14T15:26:09.518Z,93.76
2022-11-14T15:29:33.579Z,91.73
2022-11-14T15:33:18.722Z,89.85
2022-11-14T15:37:19.515Z,88.18
2022-11-14T15:41:28.760Z,86.70
2022-11-14T15:44:51.057Z,85.49
2022-11-14T15:48:19.963Z,85.38
2022-11-14T15:51:46.471Z,85.51
2022-11-14T15:55:24.776Z,85.18
2022-11-14T15:58:50.430Z,85.73
2022-11-14T16:02:11.148Z,85.17
2022-11-14T16:05:34.642Z,85.71
2022-11-14T16:08:56.859Z,87.33
2022-11-14T16:12:23.284Z,87.18
2022-11-14T16:15:45.829Z,87.14
2022-11-14T16:19:07.491Z,88.04
2022-11-14T16:22:32.509Z,88.03
2022-11-14T16:25:53.606Z,88.38
2022-11-14T16:29:21.687Z,87.96
2022-11-14T16:32:47.214Z,88.35
2022-11-14T16:36:11.874Z,88.44
2022-11-14T16:39:32.322Z,88.73
2022-11-14T16:43:03.499Z,88.50
2022-11-14T16:46:30.144Z,88.41
2022-11-14T16:49:52.852Z,87.68
2022-11-14T16:53:15.726Z,88.06
2022-11-14T16:56:36.439Z,88.86
2022-11-14T16:59:58.906Z,88.99
2022-11-14T17:03:19.659Z,88.94
2022-11-14T17:06:40.389Z,89.56
2022-11-14T17:10:08.477Z,90.65
2022-11-14T17:13:34.026Z,90.58
2022-11-14T17:17:16.957Z,94.32
2022-11-14T17:21:08.415Z,100.00
2022-11-14T17:25:46.711Z,99.54
2022-11-14T17:29:09.741Z,100.00
2022-11-14T17:32:56.358Z,100.00
2022-11-14T17:36:20.299Z,100.00
2022-11-14T17:39:41.198Z,100.00
2022-11-14T17:43:01.821Z,100.00
2022-11-14T17:46:23.701Z,99.57
2022-11-14T17:49:45.945Z,96.62
2022-11-14T17:53:06.541Z,96.67
2022-11-14T17:56:29.619Z,95.19
2022-11-14T17:59:55.944Z,95.98
2022-11-14T18:03:22.722Z,95.23
2022-11-14T18:06:47.467Z,95.29
2022-11-14T18:10:08.921Z,95.40
2022-11-14T18:13:29.252Z,95.41
2022-11-14T18:17:11.591Z,94.03
2022-11-14T18:20:31.100Z,94.63
2022-11-14T18:23:54.004Z,95.13
2022-11-14T18:27:14.569Z,95.27
2022-11-14T18:30:41.360Z,94.98
2022-11-14T18:34:03.143Z,95.36
2022-11-14T18:37:24.119Z,95.69
2022-11-14T18:40:45.219Z,97.81
2022-11-14T18:44:05.849Z,98.66
2022-11-14T18:47:26.740Z,97.79
2022-11-14T18:50:48.501Z,100.00
2022-11-14T18:54:14.589Z,100.00
2022-11-14T18:57:35.255Z,100.00
2022-11-14T19:00:57.556Z,100.00
2022-11-14T19:04:19.776Z,100.00
2022-11-14T19:07:40.297Z,100.00
2022-11-14T19:11:30.886Z,100.00
2022-11-14T19:14:51.943Z,100.00
2022-11-14T19:18:12.727Z,100.00
2022-11-14T19:21:33.757Z,100.00
2022-11-14T19:24:54.241Z,100.00
2022-11-14T19:28:14.941Z,100.00
2022-11-14T19:31:36.245Z,100.00
2022-11-14T19:34:56.928Z,100.00
2022-11-14T19:38:17.573Z,100.00
2022-11-14T19:41:38.895Z,100.00
2022-11-14T19:44:59.591Z,100.00
2022-11-14T19:48:20.232Z,100.00
2022-11-14T19:51:44.683Z,99.97
2022-11-14T19:55:05.441Z,100.00
2022-11-14T19:58:28.055Z,98.00
2022-11-14T20:01:56.461Z,95.36
2022-11-14T20:05:17.448Z,93.04
2022-11-14T20:08:37.743Z,95.13
2022-11-14T20:11:59.966Z,92.88
2022-11-14T20:15:20.603Z,91.19
2022-11-14T20:18:47.101Z,88.23
2022-11-14T20:22:16.103Z,86.13
2022-11-14T20:25:41.474Z,83.89
2022-11-14T20:29:09.282Z,78.95
2022-11-14T20:32:32.599Z,75.44
2022-11-14T20:35:55.179Z,71.48
2022-11-14T20:39:16.371Z,68.06
2022-11-14T20:42:38.233Z,63.64
2022-11-14T20:46:04.765Z,59.35
2022-11-14T20:49:26.726Z,57.96
2022-11-14T20:52:49.307Z,57.10
2022-11-14T20:56:12.796Z,56.29
2022-11-14T20:59:33.627Z,56.49
2022-11-14T21:03:00.041Z,55.40
2022-11-14T21:06:20.877Z,63.48
2022-11-14T21:09:41.492Z,73.88
2022-11-14T21:13:25.777Z,79.02
2022-11-14T21:16:46.562Z,82.88
2022-11-14T21:20:08.174Z,83.79
2022-11-14T21:23:29.132Z,84.95
2022-11-14T21:26:49.598Z,84.73
2022-11-14T21:30:10.302Z,85.86
2022-11-14T21:33:32.867Z,85.30
2022-11-14T21:36:53.683Z,86.00
2022-11-14T21:40:14.025Z,86.84
2022-11-14T21:43:35.121Z,85.52
2022-11-14T21:46:55.610Z,87.08
2022-11-14T21:50:18.223Z,86.51
2022-11-14T21:53:40.413Z,86.82
2022-11-14T21:57:04.327Z,86.14
2022-11-14T22:00:29.273Z,86.60
2022-11-14T22:04:08.287Z,86.50
2022-11-14T22:07:30.804Z,86.79
2022-11-14T22:10:51.703Z,85.52
2022-11-14T22:14:13.482Z,85.71
2022-11-14T22:17:33.980Z,85.32
2022-11-14T22:20:59.890Z,85.19
2022-11-14T22:24:20.674Z,84.90
2022-11-14T22:27:41.238Z,84.45
2022-11-14T22:31:19.460Z,84.49
2022-11-14T22:34:39.971Z,83.84
2022-11-14T22:38:04.968Z,84.02
2022-11-14T22:41:32.230Z,83.48
2022-11-14T22:44:53.606Z,83.39
2022-11-14T22:48:14.011Z,83.79
2022-11-14T22:51:36.649Z,83.23
2022-11-14T22:54:57.340Z,83.22
2022-11-14T22:58:18.057Z,83.22
2022-11-14T23:01:38.729Z,82.97
2022-11-14T23:04:59.378Z,83.88
2022-11-14T23:08:20.911Z,83.09
2022-11-14T23:11:41.469Z,83.13
2022-11-14T23:15:02.346Z,83.79
2022-11-14T23:18:24.169Z,83.26
2022-11-14T23:21:45.426Z,84.50
2022-11-14T23:25:06.433Z,83.92
2022-11-14T23:28:31.240Z,83.85
2022-11-14T23:31:53.431Z,84.25
2022-11-14T23:35:14.190Z,83.88
2022-11-14T23:38:35.017Z,84.76
2022-11-14T23:41:55.711Z,84.49
2022-11-14T23:45:17.943Z,83.94
2022-11-14T23:48:40.359Z,84.30
2022-11-14T23:52:01.971Z,83.51
2022-11-14T23:55:22.654Z,84.08
2022-11-14T23:58:43.223Z,84.08
